Annapolis, Illinois
Current Conditions -  °F | °C
As of 7:15 PM on Monday 22 Dec 2014 (Local Time) from KRSV Reporting Station
Overcast Overcast  
Wind Chill: 43°   Ceiling: 1900
Heat Index: 47°   Visibility: 10mi
Dew Point: 45°   Wind: 8mph
Humidity: 91%   Direction: 140°SE
Pressure: 29.64"   Gusts: NA
Location:  39.14°N, 87.82°W
Report Text: KRSV 230115Z AUTO 14007KT 10SM OVC019 08/07 A2964 RMK AO2 T00840070
Loading
Personal Weather Stations






























Interactive Weather Map New forecast layout! Learn more

10-Day Weather Forecast

Advertisements
Track Severe Weather on mobile